createdAt,value
2024-03-26T00:00:02.448Z,76
2024-03-26T00:16:01.822Z,78
2024-03-26T00:31:03.503Z,78
2024-03-26T00:46:03.951Z,80
2024-03-26T01:00:04.736Z,81
2024-03-26T01:16:05.730Z,81
2024-03-26T01:31:02.041Z,82
2024-03-26T01:46:01.893Z,83
2024-03-26T02:00:02.557Z,83
2024-03-26T02:16:03.255Z,83
2024-03-26T02:31:04.081Z,84
2024-03-26T02:46:04.429Z,85
2024-03-26T03:00:05.208Z,85
2024-03-26T03:16:06.241Z,86
2024-03-26T03:31:02.087Z,87
2024-03-26T03:46:02.631Z,87
2024-03-26T04:00:03.378Z,87
2024-03-26T04:16:03.989Z,87
2024-03-26T04:31:04.819Z,87
2024-03-26T04:46:05.355Z,87
2024-03-26T05:00:01.477Z,86
2024-03-26T05:16:05.472Z,86
2024-03-26T05:31:02.513Z,85
2024-03-26T05:46:03.467Z,85
2024-03-26T06:00:04.066Z,84
2024-03-26T06:16:04.765Z,84
2024-03-26T06:31:05.250Z,83
2024-03-26T06:46:06.229Z,81
2024-03-26T07:00:01.858Z,79
2024-03-26T07:16:02.460Z,79
2024-03-26T07:31:03.180Z,74
2024-03-26T07:46:03.584Z,65
2024-03-26T08:00:03.960Z,62
2024-03-26T08:16:04.689Z,56
2024-03-26T08:31:05.463Z,48
2024-03-26T08:46:06.419Z,43
2024-03-26T09:00:01.847Z,39
2024-03-26T09:16:02.222Z,34
2024-03-26T09:31:02.975Z,32
2024-03-26T09:46:03.344Z,33
2024-03-26T10:00:04.217Z,36
2024-03-26T10:16:05.013Z,31
2024-03-26T10:31:05.693Z,32
2024-03-26T10:46:07.936Z,34
2024-03-26T11:00:02.117Z,33
2024-03-26T11:16:02.633Z,34
2024-03-26T11:31:03.236Z,36
2024-03-26T11:46:03.551Z,35
2024-03-26T12:00:04.046Z,36
2024-03-26T12:16:04.999Z,35
2024-03-26T12:31:05.579Z,36
2024-03-26T12:46:01.378Z,36
2024-03-26T13:00:02.620Z,37
2024-03-26T13:16:03.275Z,39
2024-03-26T13:31:04.151Z,40
2024-03-26T13:46:04.642Z,41
2024-03-26T14:00:04.974Z,42
2024-03-26T14:16:06.058Z,44
2024-03-26T14:31:01.911Z,44
2024-03-26T14:46:02.373Z,45
2024-03-26T15:00:03.244Z,47
2024-03-26T15:16:14.623Z,50
2024-03-26T15:31:04.553Z,50
2024-03-26T15:46:04.803Z,50
2024-03-26T16:00:05.446Z,50
2024-03-26T16:16:04.053Z,50
2024-03-26T16:31:01.718Z,50
2024-03-26T16:46:02.845Z,51
2024-03-26T17:00:03.371Z,53
2024-03-26T17:16:01.334Z,55
2024-03-26T17:31:04.675Z,57
2024-03-26T17:46:05.292Z,58
2024-03-26T18:00:06.053Z,60
2024-03-26T18:16:02.047Z,60
2024-03-26T18:31:02.531Z,62
2024-03-26T18:46:03.136Z,63
2024-03-26T19:00:03.871Z,65
2024-03-26T19:16:04.418Z,66
2024-03-26T19:31:05.015Z,67
2024-03-26T19:46:05.934Z,68
2024-03-26T20:00:01.882Z,69
2024-03-26T20:16:02.932Z,71
2024-03-26T20:31:12.027Z,73
2024-03-26T20:46:04.188Z,76
2024-03-26T21:00:04.861Z,77
2024-03-26T21:16:05.774Z,79
2024-03-26T21:31:01.507Z,80
2024-03-26T21:46:01.916Z,80
2024-03-26T22:00:02.702Z,81
2024-03-26T22:16:03.377Z,82
2024-03-26T22:31:03.411Z,83
2024-03-26T22:46:04.890Z,83
2024-03-26T23:00:05.349Z,83
2024-03-26T23:16:00.506Z,83
2024-03-26T23:31:01.653Z,83
2024-03-26T23:46:02.572Z,84
